Time;durP1;ratioP1;P1;durP2;ratioP2;P2;SDS_P1;SDS_P2;PMS_P1;PMS_P2;Temp;Humidity;BMP_temperature;BMP_pressure;BME280_temperature;BME280_humidity;BME280_pressure;Samples;Min_cycle;Max_cycle;Signal;HPM_P1;HPM_P2
2023/11/17 04:02:07;;;;;;;0.52;0.40;;;10.60;99.90;;;;;;5266291;23;20287;-80
2023/11/17 04:04:34;;;;;;;0.40;0.40;;;10.60;99.90;;;;;;4975276;28;20521;-78
2023/11/17 04:07:00;;;;;;;0.90;0.60;;;10.60;99.90;;;;;;4976177;28;20501;-79
2023/11/17 04:09:27;;;;;;;0.40;0.40;;;10.60;99.90;;;;;;4973064;28;20014;-77
2023/11/17 04:11:53;;;;;;;0.50;0.50;;;10.60;99.90;;;;;;4970478;28;20472;-79
2023/11/17 04:14:22;;;;;;;0.40;0.40;;;10.60;99.90;;;;;;4971638;28;20036;-79
2023/11/17 04:16:49;;;;;;;0.75;0.50;;;10.60;99.90;;;;;;4975268;28;20107;-79
2023/11/17 04:19:17;;;;;;;0.60;0.60;;;10.60;99.90;;;;;;4971893;28;20487;-79
2023/11/17 04:21:43;;;;;;;0.47;0.47;;;10.60;99.90;;;;;;4974444;28;20423;-77
2023/11/17 04:24:09;;;;;;;0.30;0.30;;;10.60;99.90;;;;;;4989486;28;21153;-79
2023/11/17 04:26:35;;;;;;;0.40;0.40;;;10.50;99.90;;;;;;4978329;28;20027;-79
2023/11/17 04:29:00;;;;;;;0.40;0.40;;;10.60;99.90;;;;;;4981478;28;20019;-79
2023/11/17 04:31:26;;;;;;;0.50;0.50;;;10.60;99.90;;;;;;4976521;28;20026;-79
2023/11/17 04:33:51;;;;;;;1.05;0.50;;;10.60;99.90;;;;;;4972863;28;20033;-77
2023/11/17 04:36:17;;;;;;;0.40;0.40;;;10.60;99.90;;;;;;4981200;28;20038;-78
2023/11/17 04:38:43;;;;;;;0.55;0.55;;;10.50;99.90;;;;;;4984562;28;20022;-78
2023/11/17 04:41:11;;;;;;;0.50;0.50;;;10.60;99.90;;;;;;4979866;28;20038;-79
2023/11/17 04:43:36;;;;;;;0.60;0.60;;;10.50;99.90;;;;;;4973243;28;20030;-79
2023/11/17 04:46:03;;;;;;;0.60;0.60;;;10.60;99.90;;;;;;4967825;28;20094;-79
2023/11/17 04:48:30;;;;;;;0.88;0.50;;;10.50;99.90;;;;;;4979116;28;20509;-78
2023/11/17 04:50:55;;;;;;;0.70;0.70;;;10.50;99.90;;;;;;4984318;28;20026;-78
2023/11/17 04:53:21;;;;;;;0.50;0.50;;;10.60;99.90;;;;;;4980471;28;20423;-78
2023/11/17 04:55:48;;;;;;;0.50;0.50;;;10.50;99.90;;;;;;4974331;28;20479;-79
2023/11/17 04:58:14;;;;;;;0.52;0.52;;;10.50;99.90;;;;;;4973389;28;20050;-78
2023/11/17 05:00:41;;;;;;;0.40;0.40;;;10.50;99.90;;;;;;4982627;28;20491;-76
2023/11/17 05:03:07;;;;;;;0.55;0.55;;;10.60;99.90;;;;;;4983438;28;20023;-79
2023/11/17 05:05:35;;;;;;;0.52;0.52;;;10.50;99.90;;;;;;4974478;28;20053;-79
2023/11/17 05:08:01;;;;;;;0.50;0.50;;;10.50;99.90;;;;;;4975137;28;20034;-79
2023/11/17 05:10:27;;;;;;;0.60;0.60;;;10.50;99.90;;;;;;4977888;28;20419;-79
2023/11/17 05:12:53;;;;;;;0.60;0.60;;;10.60;99.90;;;;;;4983073;28;20387;-77
2023/11/17 05:15:23;;;;;;;0.50;0.50;;;10.50;99.90;;;;;;4987011;28;20033;-79
2023/11/17 05:17:49;;;;;;;0.82;0.70;;;10.50;99.90;;;;;;4972395;28;20495;-77
2023/11/17 05:20:20;;;;;;;0.68;0.68;;;10.50;99.90;;;;;;4974978;28;20046;-77
2023/11/17 05:22:51;;;;;;;0.50;0.50;;;10.50;99.90;;;;;;4978849;28;20026;-79
2023/11/17 05:25:18;;;;;;;1.70;0.60;;;10.60;99.90;;;;;;4982176;28;20029;-79
2023/11/17 05:27:48;;;;;;;0.70;0.70;;;10.50;99.90;;;;;;4983156;28;20023;-78
2023/11/17 05:30:15;;;;;;;0.50;0.50;;;10.50;99.90;;;;;;4974110;28;20503;-79
2023/11/17 05:32:41;;;;;;;0.57;0.57;;;10.50;99.90;;;;;;4976330;28;20035;-79
2023/11/17 05:35:07;;;;;;;0.63;0.63;;;10.50;99.90;;;;;;4983884;28;20026;-77
2023/11/17 05:37:34;;;;;;;0.60;0.60;;;10.50;99.90;;;;;;4989591;28;20522;-80
2023/11/17 05:40:00;;;;;;;1.65;0.60;;;10.50;99.90;;;;;;4975458;28;20043;-79
2023/11/17 05:42:26;;;;;;;0.60;0.60;;;10.50;99.90;;;;;;4974441;28;20026;-79
2023/11/17 05:44:54;;;;;;;0.55;0.55;;;10.50;99.90;;;;;;4981668;28;20030;-78
2023/11/17 05:47:19;;;;;;;0.60;0.60;;;10.50;99.90;;;;;;4979498;28;20034;-79
2023/11/17 05:49:45;;;;;;;0.68;0.68;;;10.50;99.90;;;;;;4990133;28;20053;-79
2023/11/17 05:52:12;;;;;;;0.60;0.60;;;10.50;99.90;;;;;;4978469;28;20099;-78
2023/11/17 05:54:44;;;;;;;0.60;0.60;;;10.50;99.90;;;;;;4975014;28;20561;-79
2023/11/17 05:57:17;;;;;;;0.50;0.50;;;10.50;99.90;;;;;;4979034;28;20031;-79
2023/11/17 05:59:44;;;;;;;2.33;0.60;;;10.50;99.90;;;;;;4989780;28;20077;-79
2023/11/17 06:02:14;;;;;;;1.42;0.70;;;10.50;99.90;;;;;;4984947;28;20035;-79
2023/11/17 06:04:41;;;;;;;0.60;0.60;;;10.50;99.90;;;;;;4972219;28;20022;-77
2023/11/17 06:07:08;;;;;;;0.85;0.65;;;10.50;99.90;;;;;;4973910;28;20030;-79
2023/11/17 06:09:35;;;;;;;1.13;0.75;;;10.50;99.90;;;;;;4983213;28;20061;-80
2023/11/17 06:12:00;;;;;;;0.50;0.50;;;10.50;99.90;;;;;;4988075;28;20014;-78
2023/11/17 06:14:35;;;;;;;0.70;0.70;;;10.50;99.90;;;;;;4977424;28;20045;-80
2023/11/17 06:17:06;;;;;;;0.65;0.52;;;10.50;99.90;;;;;;4977552;28;20054;-79
2023/11/17 06:19:33;;;;;;;0.60;0.60;;;10.50;99.90;;;;;;4979049;28;20550;-78
2023/11/17 06:21:59;;;;;;;0.80;0.80;;;10.50;99.90;;;;;;4981842;28;20446;-80
2023/11/17 06:24:25;;;;;;;0.40;0.40;;;10.50;99.90;;;;;;4984476;28;20026;-79
2023/11/17 06:26:51;;;;;;;0.90;0.80;;;10.50;99.90;;;;;;4969165;28;20074;-78
2023/11/17 06:29:22;;;;;;;0.68;0.68;;;10.50;99.90;;;;;;4978227;28;20038;-80
2023/11/17 06:31:48;;;;;;;0.70;0.65;;;10.50;99.90;;;;;;4980974;28;20098;-79
2023/11/17 06:34:14;;;;;;;0.82;0.70;;;10.50;99.90;;;;;;4984969;28;20490;-79
2023/11/17 06:36:41;;;;;;;0.70;0.68;;;10.50;99.90;;;;;;4986382;28;20022;-79
2023/11/17 06:39:18;;;;;;;2.90;0.57;;;10.50;99.90;;;;;;4975267;28;20026;-79
2023/11/17 06:41:43;;;;;;;0.60;0.60;;;10.50;99.90;;;;;;4976613;28;20521;-79
2023/11/17 06:44:12;;;;;;;0.52;0.52;;;10.50;99.90;;;;;;4982720;28;20037;-79
2023/11/17 06:46:41;;;;;;;0.50;0.50;;;10.50;99.90;;;;;;4979795;28;20578;-79
2023/11/17 06:49:12;;;;;;;0.50;0.50;;;10.50;99.90;;;;;;4981446;28;20110;-79
2023/11/17 06:51:54;;;;;;;0.55;0.55;;;10.50;99.90;;;;;;4971799;28;20879;-78
2023/11/17 06:54:21;;;;;;;0.50;0.50;;;10.50;99.90;;;;;;4975846;28;20039;-78
2023/11/17 06:56:47;;;;;;;0.60;0.60;;;10.50;99.90;;;;;;4984817;28;20019;-79
2023/11/17 06:59:20;;;;;;;0.52;0.52;;;10.50;99.90;;;;;;4984027;28;20046;-78
2023/11/17 07:01:46;;;;;;;0.40;0.40;;;10.50;99.90;;;;;;4970097;28;20034;-79
2023/11/17 07:04:12;;;;;;;0.60;0.60;;;10.50;99.90;;;;;;4974440;28;20024;-79
2023/11/17 07:06:42;;;;;;;0.55;0.55;;;10.50;99.90;;;;;;4975820;28;20014;-79
2023/11/17 07:09:23;;;;;;;0.60;0.60;;;10.50;99.90;;;;;;4983047;28;20019;-79
2023/11/17 07:11:51;;;;;;;0.57;0.57;;;10.50;99.90;;;;;;4980036;28;20463;-77
2023/11/17 07:14:19;;;;;;;0.80;0.80;;;10.50;99.90;;;;;;4969294;28;20027;-79
2023/11/17 07:16:46;;;;;;;0.50;0.50;;;10.50;99.90;;;;;;4972438;28;20550;-79
2023/11/17 07:19:15;;;;;;;1.20;0.70;;;10.50;99.90;;;;;;4983272;28;20022;-78
2023/11/17 07:21:41;;;;;;;0.77;0.77;;;10.50;99.90;;;;;;4982492;28;20403;-79
2023/11/17 07:24:10;;;;;;;1.02;0.93;;;10.50;99.90;;;;;;4971767;28;20031;-79
2023/11/17 07:26:36;;;;;;;0.90;0.90;;;10.50;99.90;;;;;;4971197;28;20019;-77
2023/11/17 07:29:04;;;;;;;4.00;0.98;;;10.50;99.90;;;;;;4979771;28;20483;-79
2023/11/17 07:31:37;;;;;;;1.65;0.90;;;10.50;99.90;;;;;;4998118;28;20018;-81
2023/11/17 07:34:07;;;;;;;0.88;0.88;;;10.50;99.90;;;;;;4980387;28;20042;-77
2023/11/17 07:36:37;;;;;;;0.70;0.70;;;10.50;99.90;;;;;;4975738;28;20029;-79
2023/11/17 07:39:03;;;;;;;1.05;0.80;;;10.50;99.90;;;;;;4975352;28;20037;-79
2023/11/17 07:41:29;;;;;;;0.88;0.80;;;10.50;99.90;;;;;;4996008;28;20554;-80
2023/11/17 07:43:56;;;;;;;1.05;0.95;;;10.50;99.90;;;;;;4986831;28;20110;-79
2023/11/17 07:46:25;;;;;;;0.65;0.50;;;10.50;99.90;;;;;;4973899;28;20029;-74
2023/11/17 07:48:53;;;;;;;4.85;0.60;;;12.00;99.90;;;;;;4975264;28;20019;-75
2023/11/17 07:51:19;;;;;;;4.13;0.90;;;13.80;99.90;;;;;;4973039;28;20030;-75
2023/11/17 07:53:45;;;;;;;2.83;0.68;;;14.60;99.90;;;;;;4982223;28;20467;-74
2023/11/17 07:56:11;;;;;;;0.57;0.57;;;14.70;99.90;;;;;;4981673;28;20033;-74
2023/11/17 07:58:37;;;;;;;4.43;0.80;;;14.80;99.90;;;;;;4975319;28;20098;-74
2023/11/17 08:01:08;;;;;;;0.68;0.60;;;14.90;99.90;;;;;;4975753;28;20113;-74
2023/11/17 08:03:34;;;;;;;0.57;0.57;;;14.90;99.90;;;;;;4978560;28;20607;-78
2023/11/17 08:06:02;;;;;;;1.85;0.90;;;13.90;99.90;;;;;;4985060;28;20037;-76
2023/11/17 08:08:29;;;;;;;1.02;0.90;;;12.70;99.90;;;;;;4974235;28;20535;-79
2023/11/17 08:10:55;;;;;;;2.28;0.90;;;11.90;99.90;;;;;;4978007;28;20018;-80
2023/11/17 08:13:21;;;;;;;1.83;1.10;;;11.50;99.90;;;;;;4976083;28;20100;-78
2023/11/17 08:15:48;;;;;;;1.85;1.20;;;11.20;99.90;;;;;;4978608;28;20114;-78
2023/11/17 08:18:14;;;;;;;1.48;1.10;;;11.10;99.90;;;;;;4984265;28;20022;-77
2023/11/17 08:20:41;;;;;;;2.38;1.20;;;10.90;99.90;;;;;;4970464;28;20030;-79
2023/11/17 08:23:08;;;;;;;0.88;0.88;;;10.90;99.90;;;;;;4967810;28;20893;-79
2023/11/17 08:25:34;;;;;;;1.15;0.95;;;10.80;99.90;;;;;;4976949;28;20026;-79
2023/11/17 08:28:01;;;;;;;8.48;1.63;;;10.80;99.90;;;;;;4982889;28;20156;-79
2023/11/17 08:30:27;;;;;;;1.13;1.00;;;10.80;99.90;;;;;;4977271;28;20094;-79
2023/11/17 08:32:53;;;;;;;1.20;1.10;;;10.80;99.90;;;;;;4981150;28;20102;-78
2023/11/17 08:35:18;;;;;;;1.27;1.08;;;10.70;99.90;;;;;;4971445;28;20510;-79
2023/11/17 08:37:44;;;;;;;0.90;0.90;;;10.70;99.90;;;;;;4978544;28;20034;-79
2023/11/17 08:40:10;;;;;;;1.02;0.93;;;10.70;99.90;;;;;;4984410;28;20025;-79
2023/11/17 08:42:37;;;;;;;1.23;1.13;;;10.70;99.90;;;;;;4967315;28;20031;-79
2023/11/17 08:45:07;;;;;;;1.17;1.08;;;10.60;99.90;;;;;;4976663;28;20113;-81
2023/11/17 08:47:53;;;;;;;3.20;1.00;;;10.60;99.90;;;;;;4973023;28;20023;-78
2023/11/17 08:50:19;;;;;;;1.30;0.88;;;10.60;99.90;;;;;;4970492;28;20125;-79
2023/11/17 08:52:46;;;;;;;2.05;1.17;;;10.60;99.90;;;;;;4980182;28;20563;-78
2023/11/17 08:55:14;;;;;;;1.48;1.20;;;10.60;99.90;;;;;;4982140;28;20034;-77
2023/11/17 08:57:44;;;;;;;1.85;1.13;;;10.60;99.90;;;;;;4970023;28;20518;-79
2023/11/17 09:00:25;;;;;;;1.70;1.00;;;10.60;99.90;;;;;;4979113;28;20022;-79
2023/11/17 09:02:51;;;;;;;2.20;1.30;;;10.60;99.90;;;;;;4978782;28;20038;-79
2023/11/17 09:05:18;;;;;;;2.15;1.25;;;10.60;99.90;;;;;;4970890;28;20023;-77
2023/11/17 09:07:46;;;;;;;1.20;1.10;;;10.60;99.90;;;;;;4970404;28;20050;-81
2023/11/17 09:10:14;;;;;;;1.65;1.20;;;10.60;99.90;;;;;;4975913;28;20022;-77
2023/11/17 09:12:43;;;;;;;5.63;1.70;;;10.60;99.90;;;;;;4981809;28;20026;-79
2023/11/17 09:15:13;;;;;;;1.20;1.10;;;10.60;99.90;;;;;;4981043;28;20019;-78
2023/11/17 09:17:43;;;;;;;1.60;1.25;;;10.60;99.90;;;;;;4971441;28;20042;-78
2023/11/17 09:20:11;;;;;;;5.80;1.35;;;10.60;99.90;;;;;;4981536;28;20022;-79
2023/11/17 09:22:36;;;;;;;2.50;1.42;;;10.60;99.90;;;;;;4979249;28;20019;-79
2023/11/17 09:25:03;;;;;;;2.35;1.30;;;10.60;99.90;;;;;;4984624;28;20069;-79
2023/11/17 09:27:29;;;;;;;3.00;1.38;;;10.60;99.90;;;;;;4976514;28;20209;-79
2023/11/17 09:29:55;;;;;;;2.75;1.38;;;10.60;99.90;;;;;;4982665;28;20030;-79
2023/11/17 09:32:21;;;;;;;3.35;1.45;;;10.60;99.90;;;;;;4976324;28;20479;-78
2023/11/17 09:34:48;;;;;;;1.58;1.17;;;10.60;99.90;;;;;;4979832;28;20088;-78
2023/11/17 09:37:16;;;;;;;3.22;1.90;;;10.60;99.90;;;;;;4978842;28;20031;-78
2023/11/17 09:39:42;;;;;;;1.92;1.27;;;10.60;99.90;;;;;;4979854;28;20034;-79
2023/11/17 09:42:08;;;;;;;2.55;1.67;;;10.60;99.90;;;;;;4977070;28;20030;-78
2023/11/17 09:44:35;;;;;;;2.38;1.60;;;10.60;99.90;;;;;;4974617;28;20103;-78
2023/11/17 09:47:21;;;;;;;1.70;1.35;;;10.50;99.90;;;;;;4977476;28;20039;-78
2023/11/17 09:49:49;;;;;;;3.65;1.55;;;10.60;99.90;;;;;;4981292;28;20027;-78
2023/11/17 09:52:17;;;;;;;2.55;1.30;;;10.50;99.90;;;;;;4976834;28;20080;-78
2023/11/17 09:54:45;;;;;;;1.70;1.35;;;10.50;99.90;;;;;;4981204;28;20031;-77
2023/11/17 09:57:12;;;;;;;2.28;1.40;;;10.60;99.90;;;;;;4980251;28;20030;-78
2023/11/17 09:59:42;;;;;;;3.33;1.42;;;10.50;99.90;;;;;;4980987;28;20033;-78
2023/11/17 10:02:11;;;;;;;2.95;1.40;;;10.50;99.90;;;;;;4978720;28;20026;-76
2023/11/17 10:04:37;;;;;;;1.40;1.20;;;10.50;99.90;;;;;;4978151;28;20482;-78
2023/11/17 10:07:05;;;;;;;1.52;1.25;;;10.50;99.90;;;;;;4978829;28;20097;-78
2023/11/17 10:09:33;;;;;;;1.70;1.17;;;10.50;99.90;;;;;;4981313;28;20112;-78
2023/11/17 10:11:59;;;;;;;1.35;1.23;;;10.50;99.90;;;;;;4977336;28;20388;-79
2023/11/17 10:14:27;;;;;;;3.97;1.65;;;10.50;99.90;;;;;;4966797;28;20027;-78
2023/11/17 10:16:55;;;;;;;2.28;1.65;;;10.50;99.90;;;;;;4987638;28;20029;-83
2023/11/17 10:19:23;;;;;;;2.03;1.45;;;10.50;99.90;;;;;;4977336;28;20026;-83
2023/11/17 10:21:49;;;;;;;4.07;1.42;;;10.50;99.90;;;;;;4977979;28;20038;-83
2023/11/17 10:24:16;;;;;;;4.13;1.80;;;10.50;99.90;;;;;;4983293;28;20027;-78
2023/11/17 10:26:42;;;;;;;1.92;1.58;;;10.50;99.90;;;;;;4967694;28;20030;-79
2023/11/17 10:29:09;;;;;;;2.65;1.85;;;10.50;99.90;;;;;;4970046;28;20035;-81
2023/11/17 10:31:40;;;;;;;3.00;1.40;;;10.50;99.90;;;;;;4976149;28;20026;-81
2023/11/17 10:34:13;;;;;;;2.90;1.73;;;10.50;99.90;;;;;;4975467;28;20031;-82
2023/11/17 10:37:06;;;;;;;2.88;1.70;;;10.50;99.90;;;;;;4992982;28;20030;-81
2023/11/17 10:39:49;;;;;;;3.65;1.80;;;10.50;99.90;;;;;;4992021;28;20384;-81
2023/11/17 10:42:18;;;;;;;5.75;2.55;;;10.60;99.90;;;;;;4978294;28;20114;-81
2023/11/17 10:44:43;;;;;;;6.28;2.83;;;10.60;99.90;;;;;;4980123;28;20060;-82
2023/11/17 10:47:09;;;;;;;8.43;3.65;;;10.60;99.90;;;;;;4979494;28;20049;-81
2023/11/17 10:49:35;;;;;;;6.28;3.47;;;10.60;99.90;;;;;;4976858;28;20026;-81
2023/11/17 10:52:03;;;;;;;10.90;4.00;;;10.60;99.90;;;;;;4967808;28;20023;-81
2023/11/17 10:54:33;;;;;;;7.63;3.80;;;10.50;99.90;;;;;;4968579;28;20027;-82
2023/11/17 10:57:12;;;;;;;6.18;3.78;;;10.60;99.90;;;;;;4977420;28;20094;-81
2023/11/17 10:59:41;;;;;;;5.55;3.50;;;10.50;99.90;;;;;;4975491;28;20051;-82
2023/11/17 11:02:09;;;;;;;5.43;3.08;;;10.60;99.90;;;;;;4972809;28;20088;-80
2023/11/17 11:04:35;;;;;;;5.60;3.03;;;10.60;99.90;;;;;;4981597;28;20031;-79
2023/11/17 11:07:01;;;;;;;7.22;3.30;;;10.60;99.90;;;;;;4979898;28;20562;-78
2023/11/17 11:09:36;;;;;;;5.80;2.97;;;10.60;99.90;;;;;;4977272;28;20057;-80
2023/11/17 11:12:06;;;;;;;6.95;2.78;;;10.60;99.90;;;;;;4972358;28;20114;-79
2023/11/17 11:14:32;;;;;;;4.93;2.35;;;10.60;99.90;;;;;;4972216;28;20045;-79
2023/11/17 11:16:58;;;;;;;4.60;2.75;;;10.60;99.90;;;;;;4979714;28;20027;-79
2023/11/17 11:19:27;;;;;;;3.78;2.20;;;10.60;99.90;;;;;;4982828;28;20041;-79
2023/11/17 11:22:00;;;;;;;5.93;2.28;;;10.60;99.90;;;;;;4972631;28;20027;-79
2023/11/17 11:24:33;;;;;;;3.67;2.13;;;10.60;99.90;;;;;;4976857;28;20121;-81
2023/11/17 11:27:05;;;;;;;5.47;2.50;;;10.60;99.90;;;;;;4973151;28;20054;-80
2023/11/17 11:29:32;;;;;;;3.47;1.73;;;10.60;99.90;;;;;;4973610;28;20051;-81
2023/11/17 11:32:00;;;;;;;4.97;2.00;;;10.60;99.90;;;;;;4966631;28;20113;-80
2023/11/17 11:34:26;;;;;;;2.50;2.08;;;10.60;99.90;;;;;;4979078;28;20041;-80
2023/11/17 11:36:52;;;;;;;5.18;2.33;;;10.60;99.90;;;;;;4973244;28;20098;-79
2023/11/17 11:39:18;;;;;;;2.40;1.88;;;10.70;99.90;;;;;;4968642;28;20467;-78
2023/11/17 11:41:45;;;;;;;1.73;1.58;;;10.70;99.90;;;;;;4972335;28;20086;-78
2023/11/17 11:44:12;;;;;;;9.95;2.38;;;10.70;99.90;;;;;;4976310;28;20055;-79
2023/11/17 11:46:37;;;;;;;2.55;1.90;;;10.70;99.90;;;;;;4978019;28;20484;-82
2023/11/17 11:49:06;;;;;;;2.35;1.70;;;10.70;99.90;;;;;;4980404;28;20078;-80
2023/11/17 11:51:53;;;;;;;2.42;1.92;;;10.70;99.90;;;;;;4978871;28;20066;-78
2023/11/17 11:54:19;;;;;;;5.32;2.35;;;10.60;99.90;;;;;;4972295;28;20066;-79
2023/11/17 11:56:44;;;;;;;3.75;2.30;;;10.70;99.90;;;;;;4968949;28;20034;-79
2023/11/17 11:59:11;;;;;;;6.65;3.33;;;10.60;99.90;;;;;;4980611;28;20114;-79
2023/11/17 12:01:37;;;;;;;6.75;3.08;;;10.60;99.90;;;;;;4977353;28;20065;-79
2023/11/17 12:04:05;;;;;;;4.18;2.38;;;10.60;99.90;;;;;;4976720;28;20110;-79
2023/11/17 12:06:33;;;;;;;3.22;2.30;;;10.60;99.90;;;;;;4977066;28;20029;-78
2023/11/17 12:09:07;;;;;;;3.50;2.47;;;10.60;99.90;;;;;;4977364;28;20046;-77
2023/11/17 12:11:46;;;;;;;5.82;2.40;;;10.60;99.90;;;;;;4979568;28;20026;-82
2023/11/17 12:14:15;;;;;;;5.18;2.88;;;10.60;99.90;;;;;;4978524;28;20117;-79
2023/11/17 12:16:48;;;;;;;3.50;2.33;;;10.50;99.90;;;;;;4972425;28;20034;-80
2023/11/17 12:19:16;;;;;;;2.78;2.33;;;10.50;99.90;;;;;;4979241;28;20062;-78
2023/11/17 12:21:47;;;;;;;4.55;2.15;;;10.60;99.90;;;;;;4990502;28;20030;-79
2023/11/17 12:24:13;;;;;;;5.38;2.08;;;10.50;99.90;;;;;;4998643;28;20030;-79
2023/11/17 12:26:41;;;;;;;2.83;2.28;;;10.60;99.90;;;;;;4979991;28;20026;-81
2023/11/17 12:29:11;;;;;;;3.40;1.95;;;10.60;99.90;;;;;;4976140;28;20352;-79
2023/11/17 12:31:38;;;;;;;4.28;1.67;;;10.50;99.90;;;;;;4970864;28;20027;-79
2023/11/17 12:34:05;;;;;;;1.90;1.70;;;10.50;99.90;;;;;;4977971;28;20038;-80
2023/11/17 12:36:31;;;;;;;1.75;1.60;;;10.50;99.90;;;;;;4983767;28;20027;-80
2023/11/17 12:39:06;;;;;;;3.72;1.83;;;10.50;99.90;;;;;;4980537;28;20037;-79
2023/11/17 12:41:33;;;;;;;2.13;1.60;;;10.50;99.90;;;;;;4975322;28;20084;-80
2023/11/17 12:43:59;;;;;;;2.58;1.70;;;10.50;99.90;;;;;;4977663;28;20019;-79
2023/11/17 12:46:26;;;;;;;2.75;1.70;;;10.50;99.90;;;;;;4984745;28;20054;-80
2023/11/17 12:48:53;;;;;;;4.00;1.55;;;10.50;99.90;;;;;;4982764;28;20018;-80
2023/11/17 12:51:24;;;;;;;3.92;1.50;;;10.50;99.90;;;;;;4977847;28;20413;-79
2023/11/17 12:53:49;;;;;;;2.33;1.50;;;10.50;99.90;;;;;;4977745;28;20023;-80
2023/11/17 12:56:16;;;;;;;2.85;1.98;;;10.50;99.90;;;;;;4983843;28;20101;-79
2023/11/17 12:58:43;;;;;;;2.22;1.42;;;10.50;99.90;;;;;;4983635;28;20023;-80
2023/11/17 13:01:16;;;;;;;1.67;1.40;;;10.50;99.90;;;;;;4987752;28;20030;-80
2023/11/17 13:03:43;;;;;;;2.45;1.48;;;10.50;99.90;;;;;;4975297;28;20026;-79
2023/11/17 13:06:09;;;;;;;2.00;1.48;;;10.50;99.90;;;;;;4977721;28;20023;-79
2023/11/17 13:08:36;;;;;;;3.20;1.45;;;10.60;99.90;;;;;;4980642;28;20054;-77
2023/11/17 13:11:03;;;;;;;1.90;1.17;;;10.60;99.90;;;;;;4982135;28;20057;-79
2023/11/17 13:13:29;;;;;;;10.48;2.78;;;10.60;99.90;;;;;;4981809;28;20110;-78
2023/11/17 13:15:54;;;;;;;9.23;2.00;;;13.60;99.90;;;;;;4973529;28;20023;-76
2023/11/17 13:18:21;;;;;;;6.18;1.45;;;13.40;99.90;;;;;;4984800;28;20093;-79
2023/11/17 13:20:47;;;;;;;7.00;1.77;;;12.30;99.90;;;;;;4979401;28;20478;-78
2023/11/17 13:23:14;;;;;;;6.25;1.92;;;11.60;99.90;;;;;;4985071;28;20038;-78
2023/11/17 13:26:06;;;;;;;8.15;1.88;;;11.20;99.90;;;;;;4974940;28;20026;-78
2023/11/17 13:28:42;;;;;;;2.20;1.67;;;11.00;99.90;;;;;;4977177;28;20750;-78
2023/11/17 13:31:21;;;;;;;2.90;1.23;;;10.90;99.90;;;;;;4981688;28;20026;-76
2023/11/17 13:34:11;;;;;;;1.08;1.00;;;10.80;99.90;;;;;;4970757;28;20567;-78
2023/11/17 13:36:36;;;;;;;2.97;1.23;;;10.80;99.90;;;;;;4973631;28;20101;-78
2023/11/17 13:41:40;;;;;;;2.83;0.98;;;10.80;99.90;;;;;;4980244;28;20150;-78
2023/11/17 13:44:07;;;;;;;0.80;0.80;;;10.80;99.90;;;;;;4979533;28;20029;-77
2023/11/17 13:46:35;;;;;;;1.33;1.15;;;10.70;99.90;;;;;;4984653;28;20046;-78
2023/11/17 13:49:14;;;;;;;1.80;0.90;;;10.70;99.90;;;;;;4979417;28;20133;-78
2023/11/17 13:51:41;;;;;;;2.17;0.98;;;10.70;99.90;;;;;;4977456;28;20018;-77
2023/11/17 13:54:10;;;;;;;1.60;1.00;;;10.70;99.90;;;;;;4981151;28;20022;-77
2023/11/17 13:56:50;;;;;;;1.25;0.88;;;10.70;99.90;;;;;;4981942;28;20033;-78
2023/11/17 13:59:20;;;;;;;1.30;1.13;;;10.70;99.90;;;;;;4977695;28;20034;-78
2023/11/17 14:01:58;;;;;;;1.23;0.90;;;10.70;99.90;;;;;;4977302;28;20045;-78
2023/11/17 14:04:29;;;;;;;1.30;1.00;;;10.70;99.90;;;;;;4980274;28;20034;-77
2023/11/17 14:06:59;;;;;;;2.83;1.42;;;10.60;99.90;;;;;;4979042;28;20575;-77
2023/11/17 14:09:31;;;;;;;1.58;1.40;;;10.60;99.90;;;;;;4983745;28;20019;-77
2023/11/17 14:11:58;;;;;;;1.70;1.60;;;10.60;99.90;;;;;;4978033;28;20138;-78
2023/11/17 14:14:24;;;;;;;1.10;1.00;;;10.60;99.90;;;;;;4979278;28;20030;-77
2023/11/17 14:16:50;;;;;;;1.52;1.13;;;10.60;99.90;;;;;;4980099;28;20058;-78
2023/11/17 14:19:18;;;;;;;1.60;1.20;;;10.60;99.90;;;;;;4984221;28;20057;-78
2023/11/17 14:21:45;;;;;;;1.20;1.10;;;10.60;99.90;;;;;;4981065;28;20035;-77
2023/11/17 14:24:13;;;;;;;1.13;1.02;;;10.60;99.90;;;;;;4972754;28;20054;-78
2023/11/17 14:26:39;;;;;;;1.38;1.23;;;10.60;99.90;;;;;;4981274;28;20109;-78
2023/11/17 14:29:08;;;;;;;1.23;1.10;;;10.60;99.90;;;;;;4979813;28;20098;-78
2023/11/17 14:31:36;;;;;;;1.17;1.08;;;10.60;99.90;;;;;;4981862;28;20018;-79
2023/11/17 14:34:03;;;;;;;0.90;0.90;;;10.60;99.90;;;;;;4981007;28;20480;-78
2023/11/17 14:36:29;;;;;;;1.48;1.30;;;10.60;99.90;;;;;;4979024;28;20088;-78
2023/11/17 14:38:55;;;;;;;0.90;0.85;;;10.60;99.90;;;;;;4977746;28;20080;-76
2023/11/17 14:41:21;;;;;;;3.63;1.30;;;10.60;99.90;;;;;;4982743;28;20113;-77
2023/11/17 14:43:49;;;;;;;2.97;0.70;;;10.60;99.90;;;;;;4980624;28;20117;-80
2023/11/17 14:46:20;;;;;;;1.33;0.90;;;10.60;99.90;;;;;;4975247;28;20018;-80
2023/11/17 14:48:45;;;;;;;0.95;0.70;;;10.60;99.90;;;;;;4975847;28;20161;-78
2023/11/17 14:51:14;;;;;;;1.35;1.10;;;10.60;99.90;;;;;;4976812;28;20524;-78
2023/11/17 14:53:39;;;;;;;0.75;0.75;;;10.60;99.90;;;;;;4981243;28;20026;-78
2023/11/17 14:56:05;;;;;;;0.85;0.70;;;10.60;99.90;;;;;;4979818;28;20031;-78
2023/11/17 14:58:32;;;;;;;1.05;0.80;;;10.60;99.90;;;;;;4984480;28;20414;-78
2023/11/17 15:00:58;;;;;;;0.75;0.75;;;10.60;99.90;;;;;;4977671;28;20030;-79
2023/11/17 15:03:24;;;;;;;0.70;0.70;;;10.60;99.90;;;;;;4982183;28;20076;-78
2023/11/17 15:05:50;;;;;;;1.60;1.45;;;10.60;99.90;;;;;;4977937;28;20549;-78
2023/11/17 15:08:16;;;;;;;0.98;0.80;;;10.60;99.90;;;;;;4981115;28;20476;-78
2023/11/17 15:10:43;;;;;;;2.33;0.73;;;10.60;99.90;;;;;;4981686;28;20022;-79
2023/11/17 15:13:09;;;;;;;0.68;0.68;;;10.60;99.90;;;;;;4977530;28;21352;-78
2023/11/17 15:15:35;;;;;;;2.08;1.15;;;10.60;99.90;;;;;;4980607;28;20064;-78
2023/11/17 15:18:07;;;;;;;0.80;0.80;;;10.60;99.90;;;;;;4975094;28;20110;-77
2023/11/17 15:20:36;;;;;;;2.40;1.25;;;10.60;99.90;;;;;;4978896;28;20022;-80
2023/11/17 15:23:05;;;;;;;2.22;1.50;;;10.60;99.90;;;;;;4977065;28;20022;-78
2023/11/17 15:25:36;;;;;;;3.13;1.70;;;10.60;99.90;;;;;;4982340;28;20626;-77
2023/11/17 15:28:07;;;;;;;2.85;1.90;;;10.50;99.90;;;;;;4977355;28;20019;-79
2023/11/17 15:30:36;;;;;;;2.33;1.25;;;10.60;99.90;;;;;;4976418;28;20082;-77
2023/11/17 15:33:03;;;;;;;2.67;1.65;;;10.50;99.90;;;;;;4982220;28;20026;-78
2023/11/17 15:35:30;;;;;;;2.75;1.52;;;10.50;99.90;;;;;;4979201;28;20019;-78
2023/11/17 15:37:56;;;;;;;3.47;1.60;;;10.50;99.90;;;;;;4976438;28;20148;-78
2023/11/17 15:40:23;;;;;;;2.53;1.70;;;10.60;99.90;;;;;;4976780;28;20019;-78
2023/11/17 15:42:49;;;;;;;2.30;1.50;;;10.50;99.90;;;;;;4976918;28;20422;-78
2023/11/17 15:45:14;;;;;;;2.65;1.30;;;10.60;99.90;;;;;;4966363;28;20028;-78
2023/11/17 15:47:42;;;;;;;1.60;1.50;;;10.50;99.90;;;;;;4978128;28;20029;-78
2023/11/17 15:50:15;;;;;;;2.78;1.27;;;10.60;99.90;;;;;;4978654;28;20015;-79
2023/11/17 15:52:44;;;;;;;2.13;1.23;;;10.60;99.90;;;;;;4981132;28;20014;-78
2023/11/17 15:55:16;;;;;;;1.70;1.20;;;10.60;99.90;;;;;;4974474;28;20027;-79
2023/11/17 15:57:46;;;;;;;1.40;1.10;;;10.50;99.90;;;;;;4976828;28;20034;-78
2023/11/17 16:00:14;;;;;;;1.80;1.38;;;10.50;99.90;;;;;;4975775;28;20023;-78
2023/11/17 16:02:41;;;;;;;1.30;1.20;;;10.50;99.90;;;;;;4977845;28;20069;-77
2023/11/17 16:05:13;;;;;;;3.80;1.27;;;10.50;99.90;;;;;;4977821;28;20030;-78
2023/11/17 16:07:43;;;;;;;0.80;0.80;;;10.50;99.90;;;;;;4982047;28;20088;-78
2023/11/17 16:10:18;;;;;;;2.17;1.38;;;10.50;99.90;;;;;;4972790;28;20069;-78
2023/11/17 16:12:44;;;;;;;1.85;1.25;;;10.50;99.90;;;;;;4979987;28;20050;-78
2023/11/17 16:15:12;;;;;;;1.52;1.27;;;10.50;99.90;;;;;;4979460;28;20518;-78
2023/11/17 16:17:41;;;;;;;1.20;1.10;;;10.50;99.90;;;;;;4978533;28;20062;-77
2023/11/17 16:20:14;;;;;;;1.52;1.30;;;10.50;99.90;;;;;;4971591;28;20094;-78
2023/11/17 16:22:46;;;;;;;3.10;1.40;;;10.50;99.90;;;;;;4974154;28;20057;-77
2023/11/17 16:25:16;;;;;;;3.05;1.30;;;10.50;99.90;;;;;;4974862;28;20023;-79
2023/11/17 16:27:43;;;;;;;2.17;1.60;;;10.50;99.90;;;;;;4980275;28;20030;-78
2023/11/17 16:30:13;;;;;;;1.63;1.50;;;10.50;99.90;;;;;;4979358;28;20113;-76
2023/11/17 16:32:46;;;;;;;1.80;1.45;;;10.50;99.90;;;;;;4995748;28;20534;-78
2023/11/17 16:35:13;;;;;;;2.85;1.30;;;10.50;99.90;;;;;;4977234;28;20108;-77
2023/11/17 16:37:50;;;;;;;1.85;1.25;;;10.50;99.90;;;;;;4980022;28;20028;-77
2023/11/17 16:40:22;;;;;;;1.27;1.02;;;10.50;99.90;;;;;;4975365;28;20069;-78
2023/11/17 16:42:58;;;;;;;1.50;1.38;;;10.50;99.90;;;;;;4973894;28;20014;-78
2023/11/17 16:45:24;;;;;;;2.60;1.30;;;10.50;99.90;;;;;;4972305;28;20055;-77
2023/11/17 16:47:52;;;;;;;1.85;1.48;;;10.50;99.90;;;;;;4972159;28;20035;-78
2023/11/17 16:50:19;;;;;;;2.08;1.38;;;10.50;99.90;;;;;;4975851;28;20058;-76
2023/11/17 16:52:45;;;;;;;2.10;1.63;;;10.50;99.90;;;;;;4970081;28;20046;-75
2023/11/17 16:55:12;;;;;;;1.83;1.33;;;10.50;99.90;;;;;;4965669;28;20062;-78
2023/11/17 16:57:38;;;;;;;3.78;1.48;;;10.50;99.90;;;;;;4972463;28;20031;-78